sensor_id;sensor_type;location;lat;lon;timestamp;P1;durP1;ratioP1;P2;durP2;ratioP2
2388;SDS011;1205;47.984;7.668;2022-11-14T00:00:51;8.73;;;7.40;;
2388;SDS011;1205;47.984;7.668;2022-11-14T00:03:17;8.90;;;6.97;;
2388;SDS011;1205;47.984;7.668;2022-11-14T00:05:43;9.03;;;6.87;;
2388;SDS011;1205;47.984;7.668;2022-11-14T00:08:13;9.20;;;6.97;;
2388;SDS011;1205;47.984;7.668;2022-11-14T00:10:47;9.10;;;7.10;;
2388;SDS011;1205;47.984;7.668;2022-11-14T00:13:14;11.73;;;7.87;;
2388;SDS011;1205;47.984;7.668;2022-11-14T00:15:41;7.90;;;6.40;;
2388;SDS011;1205;47.984;7.668;2022-11-14T00:18:07;10.13;;;7.20;;
2388;SDS011;1205;47.984;7.668;2022-11-14T00:20:32;11.17;;;7.63;;
2388;SDS011;1205;47.984;7.668;2022-11-14T00:22:58;11.87;;;8.07;;
2388;SDS011;1205;47.984;7.668;2022-11-14T00:25:24;12.93;;;8.50;;
2388;SDS011;1205;47.984;7.668;2022-11-14T00:27:49;10.23;;;7.73;;
2388;SDS011;1205;47.984;7.668;2022-11-14T00:30:15;15.93;;;8.13;;
2388;SDS011;1205;47.984;7.668;2022-11-14T00:32:40;8.40;;;6.60;;
2388;SDS011;1205;47.984;7.668;2022-11-14T00:35:06;5.73;;;5.23;;
2388;SDS011;1205;47.984;7.668;2022-11-14T00:37:33;7.70;;;5.30;;
2388;SDS011;1205;47.984;7.668;2022-11-14T00:39:59;8.00;;;5.43;;
2388;SDS011;1205;47.984;7.668;2022-11-14T00:42:24;6.30;;;5.50;;
2388;SDS011;1205;47.984;7.668;2022-11-14T00:44:50;6.60;;;5.90;;
2388;SDS011;1205;47.984;7.668;2022-11-14T00:47:16;5.87;;;5.27;;
2388;SDS011;1205;47.984;7.668;2022-11-14T00:49:41;5.80;;;5.20;;
2388;SDS011;1205;47.984;7.668;2022-11-14T00:52:07;7.40;;;6.10;;
2388;SDS011;1205;47.984;7.668;2022-11-14T00:54:32;6.73;;;6.00;;
2388;SDS011;1205;47.984;7.668;2022-11-14T00:56:58;10.53;;;6.20;;
2388;SDS011;1205;47.984;7.668;2022-11-14T00:59:23;6.40;;;5.80;;
2388;SDS011;1205;47.984;7.668;2022-11-14T01:01:49;7.43;;;6.30;;
2388;SDS011;1205;47.984;7.668;2022-11-14T01:04:14;7.80;;;5.43;;
2388;SDS011;1205;47.984;7.668;2022-11-14T01:06:40;7.20;;;6.40;;
2388;SDS011;1205;47.984;7.668;2022-11-14T01:09:05;10.13;;;6.83;;
2388;SDS011;1205;47.984;7.668;2022-11-14T01:11:31;7.83;;;6.50;;
2388;SDS011;1205;47.984;7.668;2022-11-14T01:13:57;9.23;;;6.73;;
2388;SDS011;1205;47.984;7.668;2022-11-14T01:16:23;7.60;;;6.10;;
2388;SDS011;1205;47.984;7.668;2022-11-14T01:18:48;7.13;;;6.37;;
2388;SDS011;1205;47.984;7.668;2022-11-14T01:21:14;6.80;;;5.73;;
2388;SDS011;1205;47.984;7.668;2022-11-14T01:23:40;7.53;;;6.13;;
2388;SDS011;1205;47.984;7.668;2022-11-14T01:26:10;9.27;;;6.30;;
2388;SDS011;1205;47.984;7.668;2022-11-14T01:28:37;10.33;;;7.40;;
2388;SDS011;1205;47.984;7.668;2022-11-14T01:31:37;15.77;;;8.67;;
2388;SDS011;1205;47.984;7.668;2022-11-14T01:33:55;14.80;;;8.67;;
2388;SDS011;1205;47.984;7.668;2022-11-14T01:36:21;12.77;;;8.73;;
2388;SDS011;1205;47.984;7.668;2022-11-14T01:38:50;13.27;;;8.60;;
2388;SDS011;1205;47.984;7.668;2022-11-14T01:41:16;13.37;;;9.50;;
2388;SDS011;1205;47.984;7.668;2022-11-14T01:43:42;18.30;;;10.03;;
2388;SDS011;1205;47.984;7.668;2022-11-14T01:48:46;14.90;;;9.27;;
2388;SDS011;1205;47.984;7.668;2022-11-14T01:53:51;16.40;;;10.13;;
2388;SDS011;1205;47.984;7.668;2022-11-14T01:56:20;19.10;;;12.70;;
2388;SDS011;1205;47.984;7.668;2022-11-14T01:59:20;15.80;;;10.40;;
2388;SDS011;1205;47.984;7.668;2022-11-14T02:01:50;16.40;;;10.93;;
2388;SDS011;1205;47.984;7.668;2022-11-14T02:04:20;16.73;;;10.60;;
2388;SDS011;1205;47.984;7.668;2022-11-14T02:06:54;18.50;;;10.80;;
2388;SDS011;1205;47.984;7.668;2022-11-14T02:09:23;16.80;;;10.60;;
2388;SDS011;1205;47.984;7.668;2022-11-14T02:11:49;19.80;;;10.33;;
2388;SDS011;1205;47.984;7.668;2022-11-14T02:14:16;13.90;;;9.13;;
2388;SDS011;1205;47.984;7.668;2022-11-14T02:16:42;10.47;;;7.97;;
2388;SDS011;1205;47.984;7.668;2022-11-14T02:19:09;12.13;;;9.03;;
2388;SDS011;1205;47.984;7.668;2022-11-14T02:21:35;13.33;;;7.97;;
2388;SDS011;1205;47.984;7.668;2022-11-14T02:24:00;10.60;;;7.50;;
2388;SDS011;1205;47.984;7.668;2022-11-14T02:26:26;11.70;;;8.60;;
2388;SDS011;1205;47.984;7.668;2022-11-14T02:28:51;15.27;;;9.57;;
2388;SDS011;1205;47.984;7.668;2022-11-14T02:31:18;16.43;;;8.93;;
2388;SDS011;1205;47.984;7.668;2022-11-14T02:33:44;15.23;;;10.50;;
2388;SDS011;1205;47.984;7.668;2022-11-14T02:36:09;15.47;;;8.77;;
2388;SDS011;1205;47.984;7.668;2022-11-14T02:38:35;15.53;;;9.30;;
2388;SDS011;1205;47.984;7.668;2022-11-14T02:41:01;14.60;;;9.53;;
2388;SDS011;1205;47.984;7.668;2022-11-14T02:43:27;14.50;;;10.13;;
2388;SDS011;1205;47.984;7.668;2022-11-14T02:45:53;11.73;;;8.60;;
2388;SDS011;1205;47.984;7.668;2022-11-14T02:48:18;13.70;;;9.80;;
2388;SDS011;1205;47.984;7.668;2022-11-14T02:50:44;12.77;;;9.30;;
2388;SDS011;1205;47.984;7.668;2022-11-14T02:53:12;14.00;;;9.00;;
2388;SDS011;1205;47.984;7.668;2022-11-14T02:55:37;10.67;;;8.60;;
2388;SDS011;1205;47.984;7.668;2022-11-14T02:58:03;10.40;;;8.70;;
2388;SDS011;1205;47.984;7.668;2022-11-14T03:00:28;28.73;;;10.20;;
2388;SDS011;1205;47.984;7.668;2022-11-14T03:02:54;19.33;;;9.00;;
2388;SDS011;1205;47.984;7.668;2022-11-14T03:05:19;17.23;;;8.90;;
2388;SDS011;1205;47.984;7.668;2022-11-14T03:07:45;22.13;;;10.17;;
2388;SDS011;1205;47.984;7.668;2022-11-14T03:10:11;12.17;;;9.37;;
2388;SDS011;1205;47.984;7.668;2022-11-14T03:12:38;16.90;;;8.47;;
2388;SDS011;1205;47.984;7.668;2022-11-14T03:15:06;12.13;;;7.20;;
2388;SDS011;1205;47.984;7.668;2022-11-14T03:17:33;11.27;;;7.90;;
2388;SDS011;1205;47.984;7.668;2022-11-14T03:19:59;13.50;;;7.80;;
2388;SDS011;1205;47.984;7.668;2022-11-14T03:22:25;8.03;;;7.20;;
2388;SDS011;1205;47.984;7.668;2022-11-14T03:24:51;18.77;;;7.43;;
2388;SDS011;1205;47.984;7.668;2022-11-14T03:27:17;11.70;;;7.70;;
2388;SDS011;1205;47.984;7.668;2022-11-14T03:29:44;13.47;;;7.93;;
2388;SDS011;1205;47.984;7.668;2022-11-14T03:32:11;11.07;;;7.50;;
2388;SDS011;1205;47.984;7.668;2022-11-14T03:34:37;9.30;;;7.27;;
2388;SDS011;1205;47.984;7.668;2022-11-14T03:37:02;10.23;;;7.60;;
2388;SDS011;1205;47.984;7.668;2022-11-14T03:39:28;10.07;;;7.87;;
2388;SDS011;1205;47.984;7.668;2022-11-14T03:41:53;8.33;;;7.00;;
2388;SDS011;1205;47.984;7.668;2022-11-14T03:44:19;9.10;;;7.00;;
2388;SDS011;1205;47.984;7.668;2022-11-14T03:46:44;7.37;;;6.43;;
2388;SDS011;1205;47.984;7.668;2022-11-14T03:49:10;7.70;;;6.13;;
2388;SDS011;1205;47.984;7.668;2022-11-14T03:51:36;6.97;;;5.97;;
2388;SDS011;1205;47.984;7.668;2022-11-14T03:54:02;7.67;;;6.50;;
2388;SDS011;1205;47.984;7.668;2022-11-14T03:56:27;8.23;;;6.23;;
2388;SDS011;1205;47.984;7.668;2022-11-14T03:58:53;7.27;;;6.53;;
2388;SDS011;1205;47.984;7.668;2022-11-14T04:01:19;9.17;;;6.30;;
2388;SDS011;1205;47.984;7.668;2022-11-14T04:03:44;7.63;;;6.83;;
2388;SDS011;1205;47.984;7.668;2022-11-14T04:06:10;8.37;;;6.80;;
2388;SDS011;1205;47.984;7.668;2022-11-14T04:08:35;11.37;;;8.07;;
2388;SDS011;1205;47.984;7.668;2022-11-14T04:11:03;11.30;;;7.83;;
2388;SDS011;1205;47.984;7.668;2022-11-14T04:13:28;14.30;;;6.93;;
2388;SDS011;1205;47.984;7.668;2022-11-14T04:15:54;8.33;;;6.63;;
2388;SDS011;1205;47.984;7.668;2022-11-14T04:18:24;10.67;;;7.53;;
2388;SDS011;1205;47.984;7.668;2022-11-14T04:20:50;7.00;;;6.27;;
2388;SDS011;1205;47.984;7.668;2022-11-14T04:23:16;9.07;;;7.40;;
2388;SDS011;1205;47.984;7.668;2022-11-14T04:25:44;8.97;;;6.80;;
2388;SDS011;1205;47.984;7.668;2022-11-14T04:28:09;8.00;;;7.17;;
2388;SDS011;1205;47.984;7.668;2022-11-14T04:30:35;7.70;;;6.90;;
2388;SDS011;1205;47.984;7.668;2022-11-14T04:33:01;10.93;;;7.40;;
2388;SDS011;1205;47.984;7.668;2022-11-14T04:35:26;7.43;;;6.73;;
2388;SDS011;1205;47.984;7.668;2022-11-14T04:37:52;9.00;;;6.63;;
2388;SDS011;1205;47.984;7.668;2022-11-14T04:40:17;9.43;;;6.83;;
2388;SDS011;1205;47.984;7.668;2022-11-14T04:42:43;12.93;;;7.13;;
2388;SDS011;1205;47.984;7.668;2022-11-14T04:45:09;10.47;;;6.50;;
2388;SDS011;1205;47.984;7.668;2022-11-14T04:47:35;9.47;;;7.63;;
2388;SDS011;1205;47.984;7.668;2022-11-14T04:50:01;12.03;;;7.53;;
2388;SDS011;1205;47.984;7.668;2022-11-14T04:52:27;12.50;;;8.10;;
2388;SDS011;1205;47.984;7.668;2022-11-14T04:54:52;8.53;;;7.27;;
2388;SDS011;1205;47.984;7.668;2022-11-14T04:57:18;9.73;;;7.80;;
2388;SDS011;1205;47.984;7.668;2022-11-14T04:59:43;10.27;;;7.27;;
2388;SDS011;1205;47.984;7.668;2022-11-14T05:02:09;9.30;;;7.80;;
2388;SDS011;1205;47.984;7.668;2022-11-14T05:04:35;8.10;;;7.30;;
2388;SDS011;1205;47.984;7.668;2022-11-14T05:07:00;15.23;;;8.13;;
2388;SDS011;1205;47.984;7.668;2022-11-14T05:09:26;11.37;;;8.43;;
2388;SDS011;1205;47.984;7.668;2022-11-14T05:11:51;10.30;;;7.97;;
2388;SDS011;1205;47.984;7.668;2022-11-14T05:14:17;9.23;;;7.20;;
2388;SDS011;1205;47.984;7.668;2022-11-14T05:16:42;11.23;;;7.87;;
2388;SDS011;1205;47.984;7.668;2022-11-14T05:19:08;8.83;;;7.50;;
2388;SDS011;1205;47.984;7.668;2022-11-14T05:21:33;8.93;;;7.40;;
2388;SDS011;1205;47.984;7.668;2022-11-14T05:23:59;8.00;;;7.10;;
2388;SDS011;1205;47.984;7.668;2022-11-14T05:26:24;8.57;;;7.20;;
2388;SDS011;1205;47.984;7.668;2022-11-14T05:28:50;9.37;;;6.80;;
2388;SDS011;1205;47.984;7.668;2022-11-14T05:31:16;8.57;;;7.43;;
2388;SDS011;1205;47.984;7.668;2022-11-14T05:33:42;9.33;;;7.27;;
2388;SDS011;1205;47.984;7.668;2022-11-14T05:36:10;6.90;;;6.20;;
2388;SDS011;1205;47.984;7.668;2022-11-14T05:38:37;8.07;;;7.27;;
2388;SDS011;1205;47.984;7.668;2022-11-14T05:41:10;7.50;;;6.70;;
2388;SDS011;1205;47.984;7.668;2022-11-14T05:43:37;8.70;;;7.63;;
2388;SDS011;1205;47.984;7.668;2022-11-14T05:46:04;8.60;;;7.70;;
2388;SDS011;1205;47.984;7.668;2022-11-14T05:48:31;7.47;;;6.77;;
2388;SDS011;1205;47.984;7.668;2022-11-14T05:50:58;10.30;;;8.40;;
2388;SDS011;1205;47.984;7.668;2022-11-14T05:53:25;8.30;;;7.47;;
2388;SDS011;1205;47.984;7.668;2022-11-14T05:55:51;6.60;;;6.00;;
2388;SDS011;1205;47.984;7.668;2022-11-14T05:58:17;6.10;;;5.60;;
2388;SDS011;1205;47.984;7.668;2022-11-14T06:00:44;4.77;;;4.47;;
2388;SDS011;1205;47.984;7.668;2022-11-14T06:03:10;4.30;;;4.00;;
2388;SDS011;1205;47.984;7.668;2022-11-14T06:05:36;4.23;;;3.93;;
2388;SDS011;1205;47.984;7.668;2022-11-14T06:08:02;5.00;;;4.47;;
2388;SDS011;1205;47.984;7.668;2022-11-14T06:10:27;5.63;;;5.07;;
2388;SDS011;1205;47.984;7.668;2022-11-14T06:12:53;4.50;;;4.10;;
2388;SDS011;1205;47.984;7.668;2022-11-14T06:15:19;7.30;;;6.70;;
2388;SDS011;1205;47.984;7.668;2022-11-14T06:17:44;5.37;;;5.00;;
2388;SDS011;1205;47.984;7.668;2022-11-14T06:20:10;4.90;;;4.50;;
2388;SDS011;1205;47.984;7.668;2022-11-14T06:22:37;8.30;;;5.10;;
2388;SDS011;1205;47.984;7.668;2022-11-14T06:25:04;5.93;;;5.43;;
2388;SDS011;1205;47.984;7.668;2022-11-14T06:27:30;7.10;;;6.40;;
2388;SDS011;1205;47.984;7.668;2022-11-14T06:29:56;9.17;;;8.07;;
2388;SDS011;1205;47.984;7.668;2022-11-14T06:32:21;8.50;;;7.60;;
2388;SDS011;1205;47.984;7.668;2022-11-14T06:34:47;7.77;;;6.97;;
2388;SDS011;1205;47.984;7.668;2022-11-14T06:37:12;8.23;;;7.40;;
2388;SDS011;1205;47.984;7.668;2022-11-14T06:39:38;8.83;;;7.93;;
2388;SDS011;1205;47.984;7.668;2022-11-14T06:42:03;8.13;;;7.33;;
2388;SDS011;1205;47.984;7.668;2022-11-14T06:44:29;7.77;;;6.97;;
2388;SDS011;1205;47.984;7.668;2022-11-14T06:46:54;6.73;;;6.00;;
2388;SDS011;1205;47.984;7.668;2022-11-14T06:49:20;6.23;;;5.63;;
2388;SDS011;1205;47.984;7.668;2022-11-14T06:51:47;5.70;;;5.20;;
2388;SDS011;1205;47.984;7.668;2022-11-14T06:54:13;6.50;;;5.90;;
2388;SDS011;1205;47.984;7.668;2022-11-14T06:56:39;5.83;;;5.33;;
2388;SDS011;1205;47.984;7.668;2022-11-14T06:59:04;6.20;;;5.70;;
2388;SDS011;1205;47.984;7.668;2022-11-14T07:01:30;5.77;;;5.27;;
2388;SDS011;1205;47.984;7.668;2022-11-14T07:03:55;4.67;;;4.30;;
2388;SDS011;1205;47.984;7.668;2022-11-14T07:06:24;4.63;;;4.23;;
2388;SDS011;1205;47.984;7.668;2022-11-14T07:08:51;4.70;;;4.30;;
2388;SDS011;1205;47.984;7.668;2022-11-14T07:11:19;12.70;;;4.90;;
2388;SDS011;1205;47.984;7.668;2022-11-14T07:16:17;8.70;;;7.17;;
2388;SDS011;1205;47.984;7.668;2022-11-14T07:18:43;17.80;;;6.70;;
2388;SDS011;1205;47.984;7.668;2022-11-14T07:21:09;13.63;;;8.07;;
2388;SDS011;1205;47.984;7.668;2022-11-14T07:23:37;7.70;;;6.50;;
2388;SDS011;1205;47.984;7.668;2022-11-14T07:26:04;7.80;;;6.70;;
2388;SDS011;1205;47.984;7.668;2022-11-14T07:28:34;9.67;;;7.70;;
2388;SDS011;1205;47.984;7.668;2022-11-14T07:31:04;7.83;;;7.03;;
2388;SDS011;1205;47.984;7.668;2022-11-14T07:33:31;9.80;;;6.87;;
2388;SDS011;1205;47.984;7.668;2022-11-14T07:35:57;9.83;;;7.40;;
2388;SDS011;1205;47.984;7.668;2022-11-14T07:38:23;9.23;;;7.20;;
2388;SDS011;1205;47.984;7.668;2022-11-14T07:40:55;9.27;;;7.60;;
2388;SDS011;1205;47.984;7.668;2022-11-14T07:43:25;7.30;;;6.60;;
2388;SDS011;1205;47.984;7.668;2022-11-14T07:45:52;8.40;;;7.07;;
2388;SDS011;1205;47.984;7.668;2022-11-14T07:48:17;6.27;;;5.67;;
2388;SDS011;1205;47.984;7.668;2022-11-14T07:50:43;9.90;;;6.50;;
2388;SDS011;1205;47.984;7.668;2022-11-14T07:53:09;9.23;;;6.27;;
2388;SDS011;1205;47.984;7.668;2022-11-14T07:55:35;7.50;;;6.73;;
2388;SDS011;1205;47.984;7.668;2022-11-14T07:58:01;8.37;;;7.47;;
2388;SDS011;1205;47.984;7.668;2022-11-14T08:00:27;8.70;;;7.27;;
2388;SDS011;1205;47.984;7.668;2022-11-14T08:02:53;8.90;;;7.30;;
2388;SDS011;1205;47.984;7.668;2022-11-14T08:05:18;7.30;;;6.60;;
2388;SDS011;1205;47.984;7.668;2022-11-14T08:07:44;11.53;;;8.27;;
2388;SDS011;1205;47.984;7.668;2022-11-14T08:10:10;14.03;;;9.57;;
2388;SDS011;1205;47.984;7.668;2022-11-14T08:12:37;10.20;;;7.70;;
2388;SDS011;1205;47.984;7.668;2022-11-14T08:15:04;9.50;;;6.73;;
2388;SDS011;1205;47.984;7.668;2022-11-14T08:17:31;8.13;;;7.03;;
2388;SDS011;1205;47.984;7.668;2022-11-14T08:19:56;8.80;;;7.07;;
2388;SDS011;1205;47.984;7.668;2022-11-14T08:22:22;9.27;;;7.60;;
2388;SDS011;1205;47.984;7.668;2022-11-14T08:24:48;6.63;;;5.93;;
2388;SDS011;1205;47.984;7.668;2022-11-14T08:27:13;10.93;;;7.33;;
2388;SDS011;1205;47.984;7.668;2022-11-14T08:29:39;8.80;;;7.60;;
2388;SDS011;1205;47.984;7.668;2022-11-14T08:32:04;47.63;;;29.30;;
2388;SDS011;1205;47.984;7.668;2022-11-14T08:34:30;44.50;;;28.60;;
2388;SDS011;1205;47.984;7.668;2022-11-14T08:36:56;30.83;;;21.87;;
2388;SDS011;1205;47.984;7.668;2022-11-14T08:39:22;19.97;;;13.80;;
2388;SDS011;1205;47.984;7.668;2022-11-14T08:41:47;12.53;;;10.10;;
2388;SDS011;1205;47.984;7.668;2022-11-14T08:44:13;11.47;;;8.90;;
2388;SDS011;1205;47.984;7.668;2022-11-14T08:46:39;10.87;;;8.53;;
2388;SDS011;1205;47.984;7.668;2022-11-14T08:49:04;15.50;;;11.70;;
2388;SDS011;1205;47.984;7.668;2022-11-14T08:51:30;13.63;;;7.97;;
2388;SDS011;1205;47.984;7.668;2022-11-14T08:53:55;16.50;;;9.47;;
2388;SDS011;1205;47.984;7.668;2022-11-14T08:56:21;10.97;;;9.00;;
2388;SDS011;1205;47.984;7.668;2022-11-14T08:58:47;10.60;;;7.90;;
2388;SDS011;1205;47.984;7.668;2022-11-14T09:01:12;13.30;;;10.13;;
2388;SDS011;1205;47.984;7.668;2022-11-14T09:03:38;16.40;;;11.90;;
2388;SDS011;1205;47.984;7.668;2022-11-14T09:06:03;13.47;;;10.97;;
2388;SDS011;1205;47.984;7.668;2022-11-14T09:08:29;16.10;;;8.00;;
2388;SDS011;1205;47.984;7.668;2022-11-14T09:10:55;7.70;;;5.90;;
2388;SDS011;1205;47.984;7.668;2022-11-14T09:13:24;10.90;;;9.20;;
2388;SDS011;1205;47.984;7.668;2022-11-14T09:15:51;13.73;;;8.67;;
2388;SDS011;1205;47.984;7.668;2022-11-14T09:18:16;13.13;;;8.97;;
2388;SDS011;1205;47.984;7.668;2022-11-14T09:20:42;10.70;;;8.47;;
2388;SDS011;1205;47.984;7.668;2022-11-14T09:23:08;11.47;;;7.47;;
2388;SDS011;1205;47.984;7.668;2022-11-14T09:25:34;11.20;;;8.10;;
2388;SDS011;1205;47.984;7.668;2022-11-14T09:28:03;8.27;;;6.73;;
2388;SDS011;1205;47.984;7.668;2022-11-14T09:30:33;10.07;;;8.27;;
2388;SDS011;1205;47.984;7.668;2022-11-14T09:33:00;14.70;;;9.10;;
2388;SDS011;1205;47.984;7.668;2022-11-14T09:35:27;13.50;;;8.33;;
2388;SDS011;1205;47.984;7.668;2022-11-14T09:38:00;11.23;;;7.40;;
2388;SDS011;1205;47.984;7.668;2022-11-14T09:40:27;13.30;;;7.83;;
2388;SDS011;1205;47.984;7.668;2022-11-14T09:42:58;9.00;;;7.60;;
2388;SDS011;1205;47.984;7.668;2022-11-14T09:45:47;12.23;;;7.80;;
2388;SDS011;1205;47.984;7.668;2022-11-14T09:48:17;9.00;;;7.23;;
2388;SDS011;1205;47.984;7.668;2022-11-14T09:51:03;8.13;;;7.33;;
2388;SDS011;1205;47.984;7.668;2022-11-14T09:53:41;11.37;;;7.07;;
2388;SDS011;1205;47.984;7.668;2022-11-14T09:56:14;9.17;;;7.27;;
2388;SDS011;1205;47.984;7.668;2022-11-14T09:58:46;10.03;;;7.50;;
2388;SDS011;1205;47.984;7.668;2022-11-14T10:01:16;9.73;;;6.63;;
2388;SDS011;1205;47.984;7.668;2022-11-14T10:03:52;9.10;;;7.63;;
2388;SDS011;1205;47.984;7.668;2022-11-14T10:06:32;7.30;;;6.50;;
2388;SDS011;1205;47.984;7.668;2022-11-14T10:09:28;8.20;;;6.43;;
2388;SDS011;1205;47.984;7.668;2022-11-14T10:15:12;8.67;;;7.23;;
2388;SDS011;1205;47.984;7.668;2022-11-14T10:30:43;21.90;;;11.47;;
2388;SDS011;1205;47.984;7.668;2022-11-14T10:36:11;10.23;;;6.83;;
2388;SDS011;1205;47.984;7.668;2022-11-14T10:41:39;9.97;;;7.50;;
2388;SDS011;1205;47.984;7.668;2022-11-14T10:44:08;29.53;;;13.23;;
2388;SDS011;1205;47.984;7.668;2022-11-14T10:46:42;39.37;;;18.67;;
2388;SDS011;1205;47.984;7.668;2022-11-14T10:49:12;21.10;;;11.00;;
2388;SDS011;1205;47.984;7.668;2022-11-14T10:51:51;22.90;;;10.90;;
2388;SDS011;1205;47.984;7.668;2022-11-14T10:54:27;16.13;;;8.93;;
2388;SDS011;1205;47.984;7.668;2022-11-14T10:57:15;13.70;;;8.47;;
2388;SDS011;1205;47.984;7.668;2022-11-14T10:59:42;8.93;;;8.03;;
2388;SDS011;1205;47.984;7.668;2022-11-14T11:02:08;16.97;;;9.47;;
2388;SDS011;1205;47.984;7.668;2022-11-14T11:04:34;35.03;;;12.03;;
2388;SDS011;1205;47.984;7.668;2022-11-14T11:09:33;39.43;;;14.50;;
2388;SDS011;1205;47.984;7.668;2022-11-14T11:12:20;38.13;;;14.80;;
2388;SDS011;1205;47.984;7.668;2022-11-14T11:15:21;27.57;;;9.97;;
2388;SDS011;1205;47.984;7.668;2022-11-14T11:21:00;41.03;;;16.87;;
2388;SDS011;1205;47.984;7.668;2022-11-14T11:23:28;26.10;;;12.43;;
2388;SDS011;1205;47.984;7.668;2022-11-14T11:26:02;23.67;;;11.20;;
2388;SDS011;1205;47.984;7.668;2022-11-14T11:28:33;14.40;;;8.37;;
2388;SDS011;1205;47.984;7.668;2022-11-14T11:31:00;9.60;;;7.00;;
2388;SDS011;1205;47.984;7.668;2022-11-14T11:33:34;13.37;;;8.13;;
2388;SDS011;1205;47.984;7.668;2022-11-14T11:36:19;18.23;;;7.37;;
2388;SDS011;1205;47.984;7.668;2022-11-14T11:38:47;10.80;;;7.23;;
2388;SDS011;1205;47.984;7.668;2022-11-14T11:41:22;9.27;;;8.13;;
2388;SDS011;1205;47.984;7.668;2022-11-14T11:44:02;14.50;;;10.50;;
2388;SDS011;1205;47.984;7.668;2022-11-14T11:46:34;17.53;;;13.70;;
2388;SDS011;1205;47.984;7.668;2022-11-14T11:49:06;17.73;;;13.57;;
2388;SDS011;1205;47.984;7.668;2022-11-14T11:51:41;18.00;;;11.30;;
2388;SDS011;1205;47.984;7.668;2022-11-14T11:54:12;15.13;;;8.10;;
2388;SDS011;1205;47.984;7.668;2022-11-14T11:56:44;19.00;;;7.70;;
2388;SDS011;1205;47.984;7.668;2022-11-14T11:59:36;8.57;;;6.03;;
2388;SDS011;1205;47.984;7.668;2022-11-14T12:04:50;4.83;;;4.10;;
2388;SDS011;1205;47.984;7.668;2022-11-14T12:07:18;6.93;;;3.57;;
2388;SDS011;1205;47.984;7.668;2022-11-14T12:09:46;5.97;;;5.03;;
2388;SDS011;1205;47.984;7.668;2022-11-14T12:14:54;5.70;;;3.70;;
2388;SDS011;1205;47.984;7.668;2022-11-14T12:31:30;4.57;;;3.93;;
2388;SDS011;1205;47.984;7.668;2022-11-14T12:34:00;5.13;;;4.20;;
2388;SDS011;1205;47.984;7.668;2022-11-14T12:36:32;5.40;;;4.20;;
2388;SDS011;1205;47.984;7.668;2022-11-14T12:38:59;7.33;;;4.40;;
2388;SDS011;1205;47.984;7.668;2022-11-14T12:41:27;6.93;;;4.53;;
2388;SDS011;1205;47.984;7.668;2022-11-14T13:08:21;5.60;;;5.00;;
2388;SDS011;1205;47.984;7.668;2022-11-14T13:10:51;5.00;;;4.33;;
2388;SDS011;1205;47.984;7.668;2022-11-14T13:13:17;5.33;;;3.80;;
2388;SDS011;1205;47.984;7.668;2022-11-14T13:16:01;9.80;;;3.60;;
2388;SDS011;1205;47.984;7.668;2022-11-14T13:25:36;8.73;;;3.77;;
2388;SDS011;1205;47.984;7.668;2022-11-14T13:27:34;9.00;;;6.97;;
2388;SDS011;1205;47.984;7.668;2022-11-14T13:30:00;5.80;;;4.60;;
2388;SDS011;1205;47.984;7.668;2022-11-14T13:38:13;10.60;;;5.10;;
2388;SDS011;1205;47.984;7.668;2022-11-14T13:43:40;9.40;;;6.60;;
2388;SDS011;1205;47.984;7.668;2022-11-14T13:46:33;5.83;;;4.60;;
2388;SDS011;1205;47.984;7.668;2022-11-14T13:49:12;9.10;;;4.80;;
2388;SDS011;1205;47.984;7.668;2022-11-14T13:51:57;6.20;;;4.50;;
2388;SDS011;1205;47.984;7.668;2022-11-14T13:54:23;9.80;;;3.97;;
2388;SDS011;1205;47.984;7.668;2022-11-14T14:02:15;16.70;;;6.73;;
2388;SDS011;1205;47.984;7.668;2022-11-14T14:13:03;7.67;;;4.73;;
2388;SDS011;1205;47.984;7.668;2022-11-14T14:24:02;7.63;;;4.50;;
2388;SDS011;1205;47.984;7.668;2022-11-14T14:32:16;9.23;;;6.27;;
2388;SDS011;1205;47.984;7.668;2022-11-14T14:34:43;13.50;;;8.90;;
2388;SDS011;1205;47.984;7.668;2022-11-14T14:37:15;9.60;;;8.27;;
2388;SDS011;1205;47.984;7.668;2022-11-14T14:39:56;8.83;;;5.00;;
2388;SDS011;1205;47.984;7.668;2022-11-14T14:42:38;10.03;;;4.60;;
2388;SDS011;1205;47.984;7.668;2022-11-14T14:45:26;5.47;;;4.93;;
2388;SDS011;1205;47.984;7.668;2022-11-14T14:48:02;6.07;;;5.47;;
2388;SDS011;1205;47.984;7.668;2022-11-14T14:50:47;6.70;;;4.60;;
2388;SDS011;1205;47.984;7.668;2022-11-14T14:53:24;8.43;;;4.43;;
2388;SDS011;1205;47.984;7.668;2022-11-14T14:55:57;5.30;;;3.57;;
2388;SDS011;1205;47.984;7.668;2022-11-14T14:58:31;11.23;;;4.60;;
2388;SDS011;1205;47.984;7.668;2022-11-14T15:00:59;6.80;;;5.30;;
2388;SDS011;1205;47.984;7.668;2022-11-14T15:03:27;12.43;;;6.57;;
2388;SDS011;1205;47.984;7.668;2022-11-14T15:05:56;12.17;;;7.50;;
2388;SDS011;1205;47.984;7.668;2022-11-14T15:08:23;11.40;;;7.37;;
2388;SDS011;1205;47.984;7.668;2022-11-14T15:10:50;17.70;;;10.40;;
2388;SDS011;1205;47.984;7.668;2022-11-14T15:13:20;25.57;;;11.77;;
2388;SDS011;1205;47.984;7.668;2022-11-14T15:15:47;13.80;;;9.43;;
2388;SDS011;1205;47.984;7.668;2022-11-14T15:18:35;11.80;;;7.03;;
2388;SDS011;1205;47.984;7.668;2022-11-14T15:21:07;10.73;;;8.13;;
2388;SDS011;1205;47.984;7.668;2022-11-14T15:26:43;36.83;;;24.13;;
2388;SDS011;1205;47.984;7.668;2022-11-14T15:31:47;17.70;;;11.93;;
2388;SDS011;1205;47.984;7.668;2022-11-14T15:34:26;39.43;;;23.17;;
2388;SDS011;1205;47.984;7.668;2022-11-14T15:39:37;19.27;;;11.70;;
2388;SDS011;1205;47.984;7.668;2022-11-14T15:42:17;37.70;;;18.87;;
2388;SDS011;1205;47.984;7.668;2022-11-14T15:44:50;37.23;;;26.70;;
2388;SDS011;1205;47.984;7.668;2022-11-14T15:50:05;40.67;;;23.90;;
2388;SDS011;1205;47.984;7.668;2022-11-14T15:52:37;17.37;;;9.70;;
2388;SDS011;1205;47.984;7.668;2022-11-14T15:55:18;16.27;;;8.10;;
2388;SDS011;1205;47.984;7.668;2022-11-14T15:57:45;10.37;;;7.73;;
2388;SDS011;1205;47.984;7.668;2022-11-14T16:00:12;11.67;;;8.43;;
2388;SDS011;1205;47.984;7.668;2022-11-14T16:02:57;12.60;;;9.50;;
2388;SDS011;1205;47.984;7.668;2022-11-14T16:05:26;18.47;;;11.50;;
2388;SDS011;1205;47.984;7.668;2022-11-14T16:07:53;22.80;;;12.63;;
2388;SDS011;1205;47.984;7.668;2022-11-14T16:10:23;20.27;;;13.43;;
2388;SDS011;1205;47.984;7.668;2022-11-14T16:12:50;23.33;;;15.70;;
2388;SDS011;1205;47.984;7.668;2022-11-14T16:15:16;25.60;;;18.97;;
2388;SDS011;1205;47.984;7.668;2022-11-14T16:17:42;29.83;;;17.17;;
2388;SDS011;1205;47.984;7.668;2022-11-14T16:20:20;27.83;;;19.00;;
2388;SDS011;1205;47.984;7.668;2022-11-14T16:22:48;25.07;;;13.83;;
2388;SDS011;1205;47.984;7.668;2022-11-14T16:25:18;28.03;;;13.63;;
2388;SDS011;1205;47.984;7.668;2022-11-14T16:27:48;16.47;;;12.03;;
2388;SDS011;1205;47.984;7.668;2022-11-14T16:30:15;16.50;;;11.83;;
2388;SDS011;1205;47.984;7.668;2022-11-14T16:32:42;19.10;;;13.20;;
2388;SDS011;1205;47.984;7.668;2022-11-14T16:35:15;22.73;;;16.87;;
2388;SDS011;1205;47.984;7.668;2022-11-14T16:37:49;27.90;;;18.63;;
2388;SDS011;1205;47.984;7.668;2022-11-14T16:42:43;31.97;;;20.30;;
2388;SDS011;1205;47.984;7.668;2022-11-14T16:45:10;32.53;;;20.80;;
2388;SDS011;1205;47.984;7.668;2022-11-14T16:47:36;35.33;;;20.50;;
2388;SDS011;1205;47.984;7.668;2022-11-14T16:50:02;32.73;;;23.27;;
2388;SDS011;1205;47.984;7.668;2022-11-14T16:52:29;31.57;;;23.77;;
2388;SDS011;1205;47.984;7.668;2022-11-14T16:54:54;30.30;;;21.73;;
2388;SDS011;1205;47.984;7.668;2022-11-14T16:57:20;41.90;;;26.07;;
2388;SDS011;1205;47.984;7.668;2022-11-14T16:59:46;34.23;;;24.40;;
2388;SDS011;1205;47.984;7.668;2022-11-14T17:02:14;42.97;;;26.83;;
2388;SDS011;1205;47.984;7.668;2022-11-14T17:04:41;38.70;;;25.90;;
2388;SDS011;1205;47.984;7.668;2022-11-14T17:07:07;47.53;;;28.33;;
2388;SDS011;1205;47.984;7.668;2022-11-14T17:09:33;50.57;;;29.37;;
2388;SDS011;1205;47.984;7.668;2022-11-14T17:11:59;58.30;;;30.57;;
2388;SDS011;1205;47.984;7.668;2022-11-14T17:14:25;51.13;;;28.33;;
2388;SDS011;1205;47.984;7.668;2022-11-14T17:16:50;45.93;;;28.13;;
2388;SDS011;1205;47.984;7.668;2022-11-14T17:19:16;49.47;;;29.40;;
2388;SDS011;1205;47.984;7.668;2022-11-14T17:21:42;51.83;;;28.70;;
2388;SDS011;1205;47.984;7.668;2022-11-14T17:24:08;41.43;;;26.50;;
2388;SDS011;1205;47.984;7.668;2022-11-14T17:26:34;47.30;;;28.37;;
2388;SDS011;1205;47.984;7.668;2022-11-14T17:29:00;49.50;;;32.50;;